createdAt,value
2023-05-12T00:00:39.811Z,448.00
2023-05-12T00:01:40.686Z,448.00
2023-05-12T00:02:41.615Z,450.00
2023-05-12T00:03:42.728Z,452.00
2023-05-12T00:04:43.188Z,450.00
2023-05-12T00:05:44.037Z,440.00
2023-05-12T00:06:44.934Z,447.00
2023-05-12T00:07:45.790Z,439.00
2023-05-12T00:08:46.678Z,453.00
2023-05-12T00:09:47.607Z,447.00
2023-05-12T00:10:48.507Z,446.00
2023-05-12T00:11:49.366Z,449.00
2023-05-12T00:12:50.259Z,449.00
2023-05-12T00:13:51.174Z,446.00
2023-05-12T00:14:52.060Z,448.00
2023-05-12T00:15:52.998Z,456.00
2023-05-12T00:16:54.061Z,459.00
2023-05-12T00:17:54.485Z,459.00
2023-05-12T00:18:55.464Z,461.00
2023-05-12T00:19:56.368Z,458.00
2023-05-12T00:20:57.255Z,473.00
2023-05-12T00:21:58.157Z,454.00
2023-05-12T00:22:59.036Z,457.00
2023-05-12T00:23:59.940Z,455.00
2023-05-12T00:25:00.849Z,459.00
2023-05-12T00:26:01.724Z,459.00
2023-05-12T00:27:02.603Z,455.00
2023-05-12T00:28:03.492Z,457.00
2023-05-12T00:29:04.374Z,461.00
2023-05-12T00:30:05.277Z,450.00
2023-05-12T00:31:06.218Z,451.00
2023-05-12T00:32:07.124Z,453.00
2023-05-12T00:33:08.010Z,453.00
2023-05-12T00:34:08.913Z,454.00
2023-05-12T00:35:09.814Z,450.00
2023-05-12T00:36:10.688Z,451.00
2023-05-12T00:37:11.568Z,453.00
2023-05-12T00:38:12.442Z,451.00
2023-05-12T00:39:13.343Z,451.00
2023-05-12T00:40:14.239Z,448.00
2023-05-12T00:41:15.134Z,451.00
2023-05-12T00:42:16.025Z,454.00
2023-05-12T00:43:16.902Z,458.00
2023-05-12T00:44:17.787Z,454.00
2023-05-12T00:45:18.701Z,455.00
2023-05-12T00:46:19.627Z,456.00
2023-05-12T00:47:20.580Z,469.00
2023-05-12T00:48:21.452Z,454.00
2023-05-12T00:49:22.356Z,452.00
2023-05-12T00:50:23.233Z,456.00
2023-05-12T00:51:24.117Z,456.00
2023-05-12T00:52:24.996Z,455.00
2023-05-12T00:53:32.585Z,456.00
2023-05-12T00:54:27.803Z,453.00
2023-05-12T00:55:27.708Z,451.00
2023-05-12T00:56:28.578Z,444.00
2023-05-12T00:57:29.436Z,465.00
2023-05-12T00:58:30.319Z,462.00
2023-05-12T00:59:31.232Z,448.00
2023-05-12T01:00:32.142Z,458.00
2023-05-12T01:01:33.098Z,456.00
2023-05-12T01:02:34.050Z,450.00
2023-05-12T01:03:35.020Z,452.00
2023-05-12T01:04:35.481Z,452.00
2023-05-12T01:05:36.380Z,459.00
2023-05-12T01:06:37.293Z,453.00
2023-05-12T01:07:38.153Z,454.00
2023-05-12T01:08:39.015Z,456.00
2023-05-12T01:09:39.904Z,455.00
2023-05-12T01:10:40.818Z,453.00
2023-05-12T01:11:41.692Z,457.00
2023-05-12T01:12:42.559Z,456.00
2023-05-12T01:13:43.450Z,462.00
2023-05-12T01:14:44.346Z,462.00
2023-05-12T01:15:45.244Z,461.00
2023-05-12T01:16:46.123Z,455.00
2023-05-12T01:17:47.107Z,455.00
2023-05-12T01:18:47.551Z,455.00
2023-05-12T01:19:48.429Z,464.00
2023-05-12T01:20:49.304Z,459.00
2023-05-12T01:21:50.162Z,459.00
2023-05-12T01:22:51.081Z,461.00
2023-05-12T01:23:51.971Z,462.00
2023-05-12T01:24:52.834Z,458.00
2023-05-12T01:25:53.745Z,456.00
2023-05-12T01:26:54.632Z,459.00
2023-05-12T01:27:55.517Z,454.00
2023-05-12T01:28:56.397Z,460.00
2023-05-12T01:29:57.289Z,460.00
2023-05-12T01:30:58.218Z,458.00
2023-05-12T01:31:59.096Z,457.00
2023-05-12T01:33:00.052Z,457.00
2023-05-12T01:34:00.935Z,460.00
2023-05-12T01:35:01.828Z,459.00
2023-05-12T01:36:02.723Z,460.00
2023-05-12T01:37:03.578Z,454.00
2023-05-12T01:38:04.473Z,458.00
2023-05-12T01:39:05.349Z,461.00
2023-05-12T01:40:06.248Z,464.00
2023-05-12T01:41:07.152Z,464.00
2023-05-12T01:42:08.029Z,463.00
2023-05-12T01:43:08.884Z,462.00
2023-05-12T01:44:09.757Z,458.00
2023-05-12T01:45:10.647Z,461.00
2023-05-12T01:46:11.617Z,465.00
2023-05-12T01:47:12.481Z,464.00
2023-05-12T01:48:13.468Z,462.00
2023-05-12T01:49:14.327Z,462.00
2023-05-12T01:50:15.258Z,458.00
2023-05-12T01:51:16.149Z,456.00
2023-05-12T01:52:17.030Z,462.00
2023-05-12T01:53:17.896Z,458.00
2023-05-12T01:54:18.783Z,457.00
2023-05-12T01:55:19.672Z,458.00
2023-05-12T01:56:20.572Z,458.00
2023-05-12T01:57:21.453Z,467.00
2023-05-12T01:58:22.332Z,462.00
2023-05-12T01:59:23.252Z,462.00
2023-05-12T02:00:24.129Z,464.00
2023-05-12T02:01:25.048Z,460.00
2023-05-12T02:02:26.011Z,461.00
2023-05-12T02:03:26.453Z,462.00
2023-05-12T02:04:27.354Z,463.00
2023-05-12T02:05:28.251Z,465.00
2023-05-12T02:06:29.130Z,464.00
2023-05-12T02:07:30.039Z,460.00
2023-05-12T02:08:30.934Z,459.00
2023-05-12T02:09:31.808Z,462.00
2023-05-12T02:10:32.690Z,466.00
2023-05-12T02:11:33.603Z,468.00
2023-05-12T02:12:34.508Z,502.00
2023-05-12T02:13:35.409Z,472.00
2023-05-12T02:14:36.267Z,470.00
2023-05-12T02:15:37.152Z,469.00
2023-05-12T02:16:38.238Z,469.00
2023-05-12T02:17:38.649Z,472.00
2023-05-12T02:18:39.569Z,467.00
2023-05-12T02:19:40.421Z,469.00
2023-05-12T02:20:41.331Z,462.00
2023-05-12T02:21:42.196Z,474.00
2023-05-12T02:22:43.081Z,464.00
2023-05-12T02:23:43.960Z,463.00
2023-05-12T02:24:44.839Z,465.00
2023-05-12T02:25:45.718Z,470.00
2023-05-12T02:26:46.650Z,480.00
2023-05-12T02:27:47.520Z,464.00
2023-05-12T02:28:48.399Z,468.00
2023-05-12T02:29:49.272Z,467.00
2023-05-12T02:30:50.157Z,467.00
2023-05-12T02:31:51.062Z,466.00
2023-05-12T02:32:52.070Z,466.00
2023-05-12T02:33:52.440Z,466.00
2023-05-12T02:34:53.305Z,467.00
2023-05-12T02:35:54.205Z,469.00
2023-05-12T02:36:55.096Z,468.00
2023-05-12T02:37:55.962Z,470.00
2023-05-12T02:38:56.840Z,470.00
2023-05-12T02:39:57.737Z,471.00
2023-05-12T02:40:58.608Z,477.00
2023-05-12T02:41:59.502Z,470.00
2023-05-12T02:43:00.386Z,471.00
2023-05-12T02:44:01.263Z,469.00
2023-05-12T02:45:02.130Z,468.00
2023-05-12T02:46:03.060Z,471.00
2023-05-12T02:47:03.910Z,470.00
2023-05-12T02:48:04.908Z,472.00
2023-05-12T02:49:05.842Z,470.00
2023-05-12T02:50:06.707Z,473.00
2023-05-12T02:51:07.634Z,473.00
2023-05-12T02:52:08.514Z,471.00
2023-05-12T02:53:09.416Z,469.00
2023-05-12T02:54:10.278Z,474.00
2023-05-12T02:55:11.181Z,469.00
2023-05-12T02:56:12.082Z,473.00
2023-05-12T02:57:12.961Z,474.00
2023-05-12T02:58:13.855Z,475.00
2023-05-12T02:59:14.734Z,472.00
2023-05-12T03:00:15.659Z,469.00
2023-05-12T03:01:16.570Z,469.00
2023-05-12T03:02:17.501Z,468.00
2023-05-12T03:03:18.466Z,475.00
2023-05-12T03:04:19.388Z,467.00
2023-05-12T03:05:20.236Z,466.00
2023-05-12T03:06:21.143Z,466.00
2023-05-12T03:07:22.081Z,469.00
2023-05-12T03:08:22.942Z,471.00
2023-05-12T03:09:23.840Z,470.00
2023-05-12T03:10:24.770Z,464.00
2023-05-12T03:11:25.622Z,465.00
2023-05-12T03:12:26.528Z,468.00
2023-05-12T03:13:27.467Z,468.00
2023-05-12T03:14:28.315Z,464.00
2023-05-12T03:15:29.189Z,464.00
2023-05-12T03:16:30.087Z,478.00
2023-05-12T03:17:30.991Z,463.00
2023-05-12T03:18:31.916Z,466.00
2023-05-12T03:19:32.770Z,465.00
2023-05-12T03:20:33.672Z,465.00
2023-05-12T03:21:34.551Z,472.00
2023-05-12T03:22:35.416Z,472.00
2023-05-12T03:23:36.404Z,470.00
2023-05-12T03:24:36.804Z,464.00
2023-05-12T03:25:37.686Z,470.00
2023-05-12T03:26:38.583Z,469.00
2023-05-12T03:27:39.474Z,468.00
2023-05-12T03:28:40.364Z,465.00
2023-05-12T03:29:41.270Z,465.00
2023-05-12T03:30:42.096Z,464.00
2023-05-12T03:31:43.040Z,465.00
2023-05-12T03:32:43.987Z,467.00
2023-05-12T03:33:44.886Z,465.00
2023-05-12T03:34:45.876Z,474.00
2023-05-12T03:35:46.746Z,473.00
2023-05-12T03:36:47.659Z,475.00
2023-05-12T03:37:48.570Z,471.00
2023-05-12T03:38:49.425Z,471.00
2023-05-12T03:39:50.305Z,479.00
2023-05-12T03:40:51.188Z,474.00
2023-05-12T03:41:52.076Z,471.00
2023-05-12T03:42:52.990Z,477.00
2023-05-12T03:43:53.916Z,465.00
2023-05-12T03:44:54.754Z,466.00
2023-05-12T03:45:55.690Z,464.00
2023-05-12T03:46:56.597Z,462.00
2023-05-12T03:47:57.544Z,467.00
2023-05-12T03:48:58.390Z,465.00
2023-05-12T03:49:59.271Z,466.00
2023-05-12T03:51:00.154Z,467.00
2023-05-12T03:52:01.070Z,466.00
2023-05-12T03:53:01.969Z,466.00
2023-05-12T03:54:02.847Z,471.00
2023-05-12T03:55:03.751Z,465.00
2023-05-12T03:56:04.634Z,466.00
2023-05-12T03:57:05.550Z,466.00
2023-05-12T03:58:06.430Z,469.00
2023-05-12T03:59:07.329Z,473.00
2023-05-12T04:00:08.246Z,468.00
2023-05-12T04:01:09.142Z,466.00
2023-05-12T04:02:10.055Z,464.00
2023-05-12T04:03:11.001Z,457.00
2023-05-12T04:04:11.989Z,461.00
2023-05-12T04:05:12.915Z,456.00
2023-05-12T04:06:13.806Z,463.00
2023-05-12T04:07:14.713Z,466.00
2023-05-12T04:08:15.579Z,464.00
2023-05-12T04:09:16.473Z,463.00
2023-05-12T04:10:17.420Z,465.00
2023-05-12T04:11:18.307Z,465.00
2023-05-12T04:12:19.197Z,463.00
2023-05-12T04:13:20.130Z,461.00
2023-05-12T04:14:28.985Z,460.00
2023-05-12T04:15:22.745Z,462.00
2023-05-12T04:16:22.729Z,462.00
2023-05-12T04:17:23.687Z,466.00
2023-05-12T04:18:24.633Z,467.00
2023-05-12T04:19:25.484Z,464.00
2023-05-12T04:20:26.428Z,461.00
2023-05-12T04:21:27.330Z,461.00
2023-05-12T04:22:28.207Z,465.00
2023-05-12T04:23:29.116Z,470.00
2023-05-12T04:24:29.986Z,472.00
2023-05-12T04:25:30.853Z,472.00
2023-05-12T04:26:31.736Z,468.00
2023-05-12T04:27:32.625Z,470.00
2023-05-12T04:28:33.521Z,472.00
2023-05-12T04:29:34.415Z,474.00
2023-05-12T04:30:35.275Z,476.00
2023-05-12T04:31:36.230Z,474.00
2023-05-12T04:32:36.774Z,472.00
2023-05-12T04:33:37.642Z,473.00
2023-05-12T04:34:38.524Z,471.00
2023-05-12T04:35:39.416Z,469.00
2023-05-12T04:36:40.278Z,474.00
2023-05-12T04:37:41.191Z,473.00
2023-05-12T04:38:42.073Z,469.00
2023-05-12T04:39:42.945Z,470.00
2023-05-12T04:40:43.823Z,471.00
2023-05-12T04:41:44.697Z,473.00
2023-05-12T04:42:45.582Z,474.00
2023-05-12T04:44:47.291Z,471.00
2023-05-12T04:45:48.244Z,472.00
2023-05-12T04:46:49.100Z,474.00
2023-05-12T04:47:50.015Z,473.00
2023-05-12T04:48:50.910Z,471.00
2023-05-12T04:49:51.778Z,472.00
2023-05-12T04:50:52.660Z,473.00
2023-05-12T04:51:53.563Z,474.00
2023-05-12T04:52:54.459Z,478.00
2023-05-12T04:53:55.347Z,478.00
2023-05-12T04:54:56.208Z,471.00
2023-05-12T04:55:57.093Z,470.00
2023-05-12T04:56:57.981Z,475.00
2023-05-12T04:57:58.891Z,469.00
2023-05-12T04:58:59.792Z,477.00
2023-05-12T05:00:00.661Z,476.00
2023-05-12T05:01:01.566Z,471.00
2023-05-12T05:02:02.461Z,470.00
2023-05-12T05:03:03.377Z,472.00
2023-05-12T05:04:04.303Z,465.00
2023-05-12T05:05:05.229Z,472.00
2023-05-12T05:06:06.137Z,470.00
2023-05-12T05:07:07.029Z,471.00
2023-05-12T05:08:07.916Z,469.00
2023-05-12T05:09:08.838Z,467.00
2023-05-12T05:10:09.720Z,465.00
2023-05-12T05:11:10.671Z,478.00
2023-05-12T05:12:11.499Z,473.00
2023-05-12T05:13:12.405Z,459.00
2023-05-12T05:14:13.299Z,465.00
2023-05-12T05:15:14.191Z,484.00
2023-05-12T05:16:15.080Z,482.00
2023-05-12T05:17:16.049Z,476.00
2023-05-12T05:18:16.876Z,480.00
2023-05-12T05:19:23.019Z,484.00
2023-05-12T05:20:19.826Z,472.00
2023-05-12T05:21:19.257Z,469.00
2023-05-12T05:22:20.190Z,465.00
2023-05-12T05:23:21.057Z,466.00
2023-05-12T05:24:21.992Z,463.00
2023-05-12T05:25:22.863Z,464.00
2023-05-12T05:26:23.792Z,463.00
2023-05-12T05:27:24.646Z,460.00
2023-05-12T05:28:25.563Z,469.00
2023-05-12T05:29:26.502Z,464.00
2023-05-12T05:30:27.369Z,472.00
2023-05-12T05:31:28.265Z,469.00
2023-05-12T05:32:29.159Z,471.00
2023-05-12T05:33:30.060Z,477.00
2023-05-12T05:34:31.012Z,469.00
2023-05-12T05:35:32.060Z,469.00
2023-05-12T05:36:32.531Z,472.00
2023-05-12T05:37:32.914Z,466.00
2023-05-12T05:38:33.860Z,468.00
2023-05-12T05:39:34.324Z,473.00
2023-05-12T05:40:48.790Z,466.00
2023-05-12T05:41:36.967Z,469.00
2023-05-12T05:42:36.966Z,473.00
2023-05-12T05:43:37.364Z,475.00
2023-05-12T05:44:38.243Z,467.00
2023-05-12T05:45:39.144Z,468.00
2023-05-12T05:46:40.064Z,478.00
2023-05-12T05:47:40.985Z,471.00
2023-05-12T05:48:41.853Z,475.00
2023-05-12T05:49:42.840Z,475.00
2023-05-12T05:50:43.700Z,471.00
2023-05-12T05:51:44.579Z,468.00
2023-05-12T05:52:45.466Z,464.00
2023-05-12T05:53:46.375Z,463.00
2023-05-12T05:54:47.284Z,470.00
2023-05-12T05:55:48.190Z,466.00
2023-05-12T05:56:49.113Z,468.00
2023-05-12T05:57:50.007Z,461.00
2023-05-12T05:58:50.899Z,466.00
2023-05-12T05:59:51.975Z,465.00
2023-05-12T06:00:52.361Z,467.00
2023-05-12T06:01:53.347Z,465.00
2023-05-12T06:02:55.523Z,463.00
2023-05-12T06:03:55.333Z,459.00
2023-05-12T06:04:55.829Z,460.00
2023-05-12T06:05:57.701Z,469.00
2023-05-12T06:06:57.578Z,467.00
2023-05-12T06:07:58.537Z,467.00
2023-05-12T06:08:59.996Z,467.00
2023-05-12T06:10:00.198Z,471.00
2023-05-12T06:11:00.871Z,470.00
2023-05-12T06:12:01.502Z,491.00
2023-05-12T06:13:02.115Z,458.00
2023-05-12T06:14:03.622Z,472.00
2023-05-12T06:15:06.040Z,472.00
2023-05-12T06:16:06.517Z,472.00
2023-05-12T06:17:05.477Z,470.00
2023-05-12T06:18:06.810Z,470.00
2023-05-12T06:19:06.618Z,471.00
2023-05-12T06:20:07.953Z,470.00
2023-05-12T06:21:08.235Z,470.00
2023-05-12T06:22:09.909Z,472.00
2023-05-12T06:23:10.685Z,472.00
2023-05-12T06:24:10.212Z,475.00
2023-05-12T06:25:10.924Z,550.00
2023-05-12T06:26:11.513Z,517.00
2023-05-12T06:27:13.255Z,589.00
2023-05-12T06:28:13.074Z,686.00
2023-05-12T06:29:13.783Z,677.00
2023-05-12T06:30:16.003Z,674.00
2023-05-12T06:31:14.884Z,681.00
2023-05-12T06:32:15.953Z,547.00
2023-05-12T06:33:16.729Z,470.00
2023-05-12T06:34:16.939Z,476.00
2023-05-12T06:35:17.927Z,478.00
2023-05-12T06:36:18.510Z,497.00
2023-05-12T06:37:18.950Z,469.00
2023-05-12T06:38:19.925Z,471.00
2023-05-12T06:39:21.010Z,470.00
2023-05-12T06:40:21.388Z,469.00
2023-05-12T06:41:22.341Z,478.00
2023-05-12T06:42:23.230Z,484.00
2023-05-12T06:43:24.232Z,485.00
2023-05-12T06:44:24.643Z,476.00
2023-05-12T06:45:25.591Z,521.00
2023-05-12T06:46:26.548Z,556.00
2023-05-12T06:47:27.463Z,509.00
2023-05-12T06:48:28.394Z,544.00
2023-05-12T06:49:29.299Z,670.00
2023-05-12T06:50:30.238Z,498.00
2023-05-12T06:51:31.150Z,584.00
2023-05-12T06:52:32.058Z,560.00
2023-05-12T06:53:33.012Z,512.00
2023-05-12T06:54:33.894Z,492.00
2023-05-12T06:55:34.837Z,483.00
2023-05-12T06:56:35.878Z,479.00
2023-05-12T06:57:36.281Z,493.00
2023-05-12T06:58:37.172Z,499.00
2023-05-12T06:59:39.020Z,497.00
2023-05-12T07:00:39.126Z,506.00
2023-05-12T07:01:40.015Z,502.00
2023-05-12T07:02:40.978Z,513.00
2023-05-12T07:03:41.573Z,532.00
2023-05-12T07:04:42.842Z,707.00
2023-05-12T07:05:43.543Z,541.00
2023-05-12T07:06:44.853Z,528.00
2023-05-12T07:07:45.694Z,516.00
2023-05-12T07:08:45.984Z,507.00
2023-05-12T07:09:46.597Z,502.00
2023-05-12T07:10:56.630Z,502.00
2023-05-12T07:11:50.117Z,501.00
2023-05-12T07:12:50.145Z,499.00
2023-05-12T07:13:50.359Z,497.00
2023-05-12T07:14:58.277Z,504.00
2023-05-12T07:15:52.005Z,559.00
2023-05-12T07:16:52.211Z,531.00
2023-05-12T07:17:52.876Z,542.00
2023-05-12T07:18:53.479Z,522.00
2023-05-12T07:19:54.416Z,505.00
2023-05-12T07:20:54.834Z,508.00
2023-05-12T07:21:56.888Z,509.00
2023-05-12T07:22:56.822Z,503.00
2023-05-12T07:24:00.730Z,508.00
2023-05-12T07:24:58.868Z,515.00
2023-05-12T07:25:59.175Z,519.00
2023-05-12T07:27:02.543Z,527.00
2023-05-12T07:28:00.964Z,521.00
2023-05-12T07:29:01.605Z,498.00
2023-05-12T07:30:02.877Z,503.00
2023-05-12T07:31:04.511Z,511.00
2023-05-12T07:32:04.028Z,489.00
2023-05-12T07:33:04.750Z,507.00
2023-05-12T07:34:06.719Z,508.00
2023-05-12T07:35:06.674Z,427.00
2023-05-12T07:36:08.441Z,469.00
2023-05-12T07:37:07.966Z,468.00
2023-05-12T07:38:08.676Z,466.00
2023-05-12T07:39:10.401Z,491.00
2023-05-12T07:40:10.954Z,484.00
2023-05-12T07:41:13.777Z,485.00
2023-05-12T07:42:13.464Z,473.00
2023-05-12T07:43:12.789Z,457.00
2023-05-12T07:44:13.331Z,440.00
2023-05-12T07:45:14.300Z,441.00
2023-05-12T07:46:14.805Z,474.00
2023-05-12T07:47:16.759Z,455.00
2023-05-12T07:48:16.433Z,485.00
2023-05-12T07:49:16.848Z,465.00
2023-05-12T07:50:18.771Z,463.00
2023-05-12T07:51:19.860Z,465.00
2023-05-12T07:52:20.758Z,471.00
2023-05-12T07:53:22.365Z,461.00
2023-05-12T07:54:21.575Z,460.00
2023-05-12T07:55:23.596Z,459.00
2023-05-12T07:56:22.605Z,464.00
2023-05-12T07:57:23.609Z,454.00
2023-05-12T07:58:24.504Z,452.00
2023-05-12T07:59:24.860Z,451.00
2023-05-12T08:00:25.151Z,451.00
2023-05-12T08:01:26.154Z,450.00
2023-05-12T08:02:27.694Z,465.00
2023-05-12T08:03:27.643Z,449.00
2023-05-12T08:04:28.588Z,460.00
2023-05-12T08:05:29.189Z,457.00
2023-05-12T08:06:29.773Z,450.00
2023-05-12T08:07:32.119Z,449.00
2023-05-12T08:08:31.350Z,451.00
2023-05-12T08:09:33.866Z,448.00
2023-05-12T08:10:33.669Z,446.00
2023-05-12T08:11:34.811Z,446.00
2023-05-12T08:12:35.046Z,445.00
2023-05-12T08:13:35.484Z,442.00
2023-05-12T08:14:35.944Z,444.00
2023-05-12T08:15:38.118Z,444.00
2023-05-12T08:16:38.737Z,448.00
2023-05-12T08:17:38.937Z,447.00
2023-05-12T08:18:38.654Z,446.00
2023-05-12T08:19:41.991Z,440.00
2023-05-12T08:20:39.897Z,453.00
2023-05-12T08:21:42.274Z,446.00
2023-05-12T08:22:44.093Z,450.00
2023-05-12T08:23:43.033Z,461.00
2023-05-12T08:24:43.209Z,458.00
2023-05-12T08:25:43.456Z,451.00
2023-05-12T08:26:44.052Z,454.00
2023-05-12T08:27:44.512Z,451.00
2023-05-12T08:28:45.012Z,449.00
2023-05-12T08:29:45.587Z,445.00
2023-05-12T08:30:46.501Z,440.00
2023-05-12T08:31:53.512Z,444.00
2023-05-12T08:32:48.580Z,436.00
2023-05-12T08:33:51.837Z,436.00
2023-05-12T08:35:13.133Z,441.00
2023-05-12T08:35:50.912Z,441.00
2023-05-12T08:36:55.270Z,438.00
2023-05-12T08:37:53.135Z,441.00
2023-05-12T08:38:55.399Z,445.00
2023-05-12T08:40:14.059Z,448.00
2023-05-12T08:40:57.283Z,445.00
2023-05-12T08:41:55.234Z,462.00
2023-05-12T08:42:59.829Z,428.00
2023-05-12T08:43:57.123Z,485.00
2023-05-12T08:44:57.329Z,454.00
2023-05-12T08:46:01.754Z,463.00
2023-05-12T08:46:59.358Z,460.00
2023-05-12T08:48:01.183Z,455.00
2023-05-12T08:49:32.252Z,452.00
2023-05-12T08:50:02.712Z,450.00
2023-05-12T08:51:02.800Z,450.00
2023-05-12T08:52:02.649Z,447.00
2023-05-12T08:53:03.970Z,446.00
2023-05-12T08:54:03.900Z,445.00
2023-05-12T08:55:04.755Z,443.00
2023-05-12T08:58:02.416Z,431.00
2023-05-12T08:59:02.100Z,431.00
2023-05-12T09:00:04.462Z,428.00
2023-05-12T09:01:03.669Z,456.00
2023-05-12T09:02:04.535Z,459.00
2023-05-12T09:03:20.040Z,459.00
2023-05-12T09:04:06.170Z,442.00
2023-05-12T09:05:07.165Z,442.00
2023-05-12T09:06:07.049Z,449.00
2023-05-12T09:07:08.013Z,443.00
2023-05-12T09:08:08.523Z,431.00
2023-05-12T09:09:11.416Z,429.00
2023-05-12T09:10:22.462Z,436.00
2023-05-12T09:11:13.654Z,436.00
2023-05-12T09:12:15.095Z,434.00
2023-05-12T09:13:13.946Z,440.00
2023-05-12T09:16:08.595Z,433.00
2023-05-12T09:17:04.720Z,439.00
2023-05-12T09:18:03.957Z,441.00
2023-05-12T09:19:06.888Z,438.00
2023-05-12T09:20:06.072Z,433.00
2023-05-12T09:21:08.138Z,437.00
2023-05-12T09:22:07.445Z,438.00
2023-05-12T09:23:07.876Z,435.00
2023-05-12T09:24:08.471Z,445.00
2023-05-12T09:25:16.057Z,433.00
2023-05-12T09:26:10.695Z,433.00
2023-05-12T09:27:10.383Z,431.00
2023-05-12T09:28:15.411Z,432.00
2023-05-12T09:29:20.850Z,384.00
2023-05-12T09:30:13.726Z,451.00
2023-05-12T09:31:21.920Z,439.00
2023-05-12T09:32:15.328Z,438.00
2023-05-12T09:33:23.320Z,427.00
2023-05-12T09:34:17.569Z,436.00
2023-05-12T09:35:17.820Z,436.00
2023-05-12T09:36:18.112Z,429.00
2023-05-12T09:37:18.720Z,434.00
2023-05-12T09:38:19.988Z,447.00
2023-05-12T09:39:21.097Z,443.00
2023-05-12T09:40:20.836Z,445.00
2023-05-12T09:41:20.853Z,431.00
2023-05-12T09:42:23.155Z,436.00
2023-05-12T09:43:22.479Z,428.00
2023-05-12T09:44:23.358Z,441.00
2023-05-12T09:45:23.787Z,435.00
2023-05-12T09:46:25.250Z,426.00
2023-05-12T09:47:25.263Z,435.00
2023-05-12T09:48:27.587Z,436.00
2023-05-12T09:49:27.991Z,431.00
2023-05-12T09:50:44.384Z,428.00
2023-05-12T09:51:52.631Z,427.00
2023-05-12T09:52:36.737Z,427.00
2023-05-12T09:55:02.176Z,431.00
2023-05-12T09:56:02.309Z,442.00
2023-05-12T09:57:05.688Z,443.00
2023-05-12T09:58:03.550Z,440.00
2023-05-12T09:59:05.182Z,429.00
2023-05-12T10:00:13.801Z,451.00
2023-05-12T10:01:21.790Z,460.00
2023-05-12T10:02:07.998Z,447.00
2023-05-12T10:03:08.131Z,439.00
2023-05-12T10:04:08.140Z,439.00
2023-05-12T10:05:08.775Z,442.00
2023-05-12T10:06:09.237Z,439.00
2023-05-12T10:07:10.669Z,439.00
2023-05-12T10:08:11.163Z,441.00
2023-05-12T10:09:11.646Z,433.00
2023-05-12T10:10:12.095Z,435.00
2023-05-12T10:11:12.961Z,433.00
2023-05-12T10:12:13.955Z,437.00
2023-05-12T10:13:14.510Z,437.00
2023-05-12T10:14:15.098Z,450.00
2023-05-12T10:15:15.615Z,457.00
2023-05-12T10:16:16.885Z,447.00
2023-05-12T10:17:17.431Z,426.00
2023-05-12T10:18:18.009Z,441.00
2023-05-12T10:19:18.445Z,439.00
2023-05-12T10:20:19.454Z,447.00
2023-05-12T10:21:20.587Z,446.00
2023-05-12T10:22:21.295Z,454.00
2023-05-12T10:23:21.751Z,440.00
2023-05-12T10:24:23.677Z,437.00
2023-05-12T10:25:23.708Z,440.00
2023-05-12T10:26:24.212Z,437.00
2023-05-12T10:27:25.205Z,434.00
2023-05-12T10:28:25.717Z,435.00
2023-05-12T10:29:26.194Z,437.00
2023-05-12T10:30:27.195Z,435.00
2023-05-12T10:31:28.194Z,436.00
2023-05-12T10:32:28.725Z,437.00
2023-05-12T10:33:29.393Z,440.00
2023-05-12T10:34:30.017Z,440.00
2023-05-12T10:35:30.714Z,440.00
2023-05-12T10:36:31.176Z,421.00
2023-05-12T10:37:32.103Z,438.00
2023-05-12T10:38:34.933Z,460.00
2023-05-12T10:39:33.817Z,436.00
2023-05-12T10:40:34.906Z,451.00
2023-05-12T10:41:35.355Z,445.00
2023-05-12T10:42:37.550Z,438.00
2023-05-12T10:43:37.013Z,433.00
2023-05-12T10:44:38.113Z,434.00
2023-05-12T10:45:38.777Z,434.00
2023-05-12T10:46:39.221Z,436.00
2023-05-12T10:47:40.060Z,439.00
2023-05-12T10:48:40.580Z,442.00
2023-05-12T10:49:41.958Z,446.00
2023-05-12T10:50:42.594Z,447.00
2023-05-12T10:51:43.254Z,441.00
2023-05-12T10:52:43.777Z,454.00
2023-05-12T10:53:50.126Z,475.00
2023-05-12T10:54:47.201Z,429.00
2023-05-12T10:55:46.176Z,423.00
2023-05-12T10:56:46.746Z,431.00
2023-05-12T10:57:47.923Z,425.00
2023-05-12T10:58:48.561Z,426.00
2023-05-12T10:59:49.556Z,427.00
2023-05-12T11:00:50.582Z,426.00
2023-05-12T11:01:50.850Z,425.00
2023-05-12T11:02:52.753Z,441.00
2023-05-12T11:03:54.043Z,441.00
2023-05-12T11:04:53.391Z,440.00
2023-05-12T11:05:53.719Z,434.00
2023-05-12T11:06:54.664Z,437.00
2023-05-12T11:07:55.588Z,439.00
2023-05-12T11:08:57.066Z,439.00
2023-05-12T11:09:58.986Z,439.00
2023-05-12T11:10:58.378Z,443.00
2023-05-12T11:11:58.606Z,435.00
2023-05-12T11:12:59.106Z,415.00
2023-05-12T11:13:59.579Z,436.00
2023-05-12T11:15:00.577Z,432.00
2023-05-12T11:16:01.180Z,431.00
2023-05-12T11:17:01.645Z,447.00
2023-05-12T11:18:02.232Z,441.00
2023-05-12T11:19:02.837Z,436.00
2023-05-12T11:20:03.492Z,438.00
2023-05-12T11:21:04.051Z,434.00
2023-05-12T11:22:04.741Z,432.00
2023-05-12T11:23:05.756Z,436.00
2023-05-12T11:24:06.243Z,432.00
2023-05-12T11:25:06.933Z,436.00
2023-05-12T11:26:07.389Z,438.00
2023-05-12T11:27:07.957Z,439.00
2023-05-12T11:28:09.070Z,445.00
2023-05-12T11:29:09.617Z,447.00
2023-05-12T11:30:10.280Z,417.00
2023-05-12T11:31:10.979Z,497.00
2023-05-12T11:32:12.431Z,444.00
2023-05-12T11:33:12.522Z,423.00
2023-05-12T11:34:13.599Z,449.00
2023-05-12T11:35:13.651Z,435.00
2023-05-12T11:36:14.517Z,437.00
2023-05-12T11:37:15.433Z,437.00
2023-05-12T11:38:16.349Z,448.00
2023-05-12T11:39:17.352Z,438.00
2023-05-12T11:40:18.240Z,442.00
2023-05-12T11:41:19.097Z,435.00
2023-05-12T11:42:21.696Z,445.00
2023-05-12T11:43:20.561Z,442.00
2023-05-12T11:44:21.445Z,440.00
2023-05-12T11:45:22.792Z,451.00
2023-05-12T11:46:23.128Z,443.00
2023-05-12T11:47:23.581Z,445.00
2023-05-12T11:48:24.543Z,439.00
2023-05-12T11:49:25.432Z,433.00
2023-05-12T11:50:26.392Z,433.00
2023-05-12T11:51:27.251Z,440.00
2023-05-12T11:52:28.217Z,440.00
2023-05-12T11:53:29.110Z,436.00
2023-05-12T11:54:30.014Z,442.00
2023-05-12T11:55:30.916Z,440.00
2023-05-12T11:56:31.786Z,445.00
2023-05-12T11:57:32.716Z,445.00
2023-05-12T11:58:35.128Z,444.00
2023-05-12T11:59:34.548Z,438.00
2023-05-12T12:00:35.471Z,432.00
2023-05-12T12:01:36.399Z,433.00
2023-05-12T12:02:37.562Z,435.00
2023-05-12T12:03:38.304Z,437.00
2023-05-12T12:04:38.810Z,436.00
2023-05-12T12:05:39.290Z,438.00
2023-05-12T12:06:39.843Z,436.00
2023-05-12T12:07:40.321Z,448.00
2023-05-12T12:08:41.333Z,448.00
2023-05-12T12:09:41.733Z,444.00
2023-05-12T12:10:42.600Z,442.00
2023-05-12T12:11:43.699Z,445.00
2023-05-12T12:12:44.201Z,439.00
2023-05-12T12:13:44.622Z,440.00
2023-05-12T12:14:45.542Z,444.00
2023-05-12T12:15:47.136Z,435.00
2023-05-12T12:16:47.080Z,435.00
2023-05-12T12:17:48.040Z,435.00
2023-05-12T12:18:48.519Z,439.00
2023-05-12T12:19:49.452Z,444.00
2023-05-12T12:20:50.343Z,438.00
2023-05-12T12:21:51.224Z,435.00
2023-05-12T12:22:52.149Z,434.00
2023-05-12T12:23:53.115Z,432.00
2023-05-12T12:24:54.017Z,436.00
2023-05-12T12:25:54.877Z,434.00
2023-05-12T12:26:55.771Z,437.00
2023-05-12T12:27:56.645Z,440.00
2023-05-12T12:28:57.688Z,439.00
2023-05-12T12:29:58.202Z,439.00
2023-05-12T12:30:58.625Z,440.00
2023-05-12T12:31:59.576Z,442.00
2023-05-12T12:33:00.504Z,442.00
2023-05-12T12:34:01.443Z,449.00
2023-05-12T12:35:02.353Z,448.00
2023-05-12T12:36:03.254Z,445.00
2023-05-12T12:37:04.145Z,442.00
2023-05-12T12:38:05.023Z,452.00
2023-05-12T12:39:05.924Z,441.00
2023-05-12T12:40:06.827Z,450.00
2023-05-12T12:41:07.718Z,488.00
2023-05-12T12:42:08.583Z,449.00
2023-05-12T12:43:09.478Z,444.00
2023-05-12T12:44:10.383Z,456.00
2023-05-12T12:45:11.267Z,402.00